Hlavní strana
METAR-TAF:

METAR-TAF

Letiště :

Letiště Pulkovo

Petrohrad, Rusko

zeměpisná šířka: 59-58N, zeměpisná délka: 030-18E, výška: 4 m

Aktuální stav počasí

Zpráva byla vytvořena před 33 minutami, v 22:30 UTC
Severozápadní vítr 8 kt
Teplota -8°C
Vlhkost vzduchu 79%
Tlak 1027 hPa
Viditelnost 10 km a více
Oblačno až skoro zataženo ve výšce 2100 ft
slabé sněžení

METAR: ULLI 212230Z 32004MPS 9999 -SN BKN021 M08/M11 Q1027 R28L/810350 NOSIG

Čas: 02:03 (23:03 UTC)

Předpověď počasí

Zpráva byla vytvořena před 3 hodinami a 3 minutami, v 20:00 UTC
Předpověď platná od 21 v 21 UTC do 22 v 21 UTC
Severoseverozápadní vítr 8 kt s nárazy do 19 kt
Viditelnost 10 km a více
Polojasno ve výšce 1500 ft
Dočasný
od 22 v 03 UTC do 22 v 09 UTC
Severní vítr 6 kt s nárazy do 17 kt
Polojasno ve výšce 1100 ft
Změna
od 22 v 13 UTC do 22 v 15 UTC
Západní vítr 6 kt
Oblačno až skoro zataženo ve výšce 4000 ft

TAF: ULLI 212000Z 2121/2221 34004G10MPS 9999 SCT015 TEMPO 2203/2209 36003G09MPS SCT011 BECMG 2213/2215 28003MPS BKN040

Stav a předpovědi počasí z více než 4 000 letišť (zprávy METAR a TAF).

Červené a žluté tečky na mapě představují dostupné meteorologické stanice.

Když kurzor umístíte na tečku, zobrazí se název stanice.

Pak kliknutím zobrazíte stav a předpověď počasí.

Chcete-li změnit mapu, kliknutím na zelené tlačítko se znaménkem +mapu přiblížíte, kliknutím na zelené tlačítko se znaménkem – mapu oddálíte a kliknutím na zelené šipky přejdete na sousední mapy.


METAR-TAF: